Terminal Aerodrome Forecast
Issued by NWS Rapid City, SD

Home | Current Version | Previous Version | Graphics & Text | Print | Product List | Glossary On
Versions: 1 2 3 4 5 6 7 8 9 10 11 12 13 14 15 16 17 18 19 20 21 22 23 24 25 26 27
255
FTUS43 KUNR 290520
TAFRAP
TAF
KRAP 290520Z 2906/3006 35004KT P6SM OVC025
     FM290800 03004KT 1SM -DZ BR OVC005
     FM291700 06007KT P6SM OVC015
     FM300200 07012KT P6SM OVC007=

USA.gov is the U.S. government's official web portal to all federal, state and local government web resources and services.